createdAt,value
2018-11-06T00:00:15.154Z,45.10
2018-11-06T00:02:41.371Z,45.10
2018-11-06T00:05:07.608Z,45.00
2018-11-06T00:07:33.831Z,45.00
2018-11-06T00:10:00.059Z,45.70
2018-11-06T00:12:26.287Z,45.00
2018-11-06T00:14:52.512Z,45.00
2018-11-06T00:17:18.748Z,45.00
2018-11-06T00:19:44.976Z,45.10
2018-11-06T00:22:11.201Z,45.00
2018-11-06T00:24:37.426Z,45.10
2018-11-06T00:27:03.662Z,45.00
2018-11-06T00:29:29.884Z,45.00
2018-11-06T00:31:56.111Z,45.00
2018-11-06T00:34:22.425Z,45.00
2018-11-06T00:36:48.983Z,44.90
2018-11-06T00:39:15.212Z,45.00
2018-11-06T00:41:41.842Z,45.10
2018-11-06T00:44:08.066Z,45.10
2018-11-06T00:46:34.302Z,45.10
2018-11-06T00:49:00.533Z,45.20
2018-11-06T00:51:26.751Z,45.10
2018-11-06T00:53:53.009Z,45.10
2018-11-06T00:56:19.219Z,45.10
2018-11-06T00:58:45.437Z,45.10
2018-11-06T01:01:11.673Z,45.00
2018-11-06T01:03:37.909Z,45.00
2018-11-06T01:06:04.123Z,45.00
2018-11-06T01:08:30.404Z,45.00
2018-11-06T01:10:56.994Z,45.00
2018-11-06T01:13:23.211Z,44.90
2018-11-06T01:15:49.443Z,45.00
2018-11-06T01:18:15.671Z,45.00
2018-11-06T01:20:41.895Z,45.00
2018-11-06T01:23:08.152Z,45.00
2018-11-06T01:25:34.354Z,45.00
2018-11-06T01:28:00.584Z,45.00
2018-11-06T01:30:26.810Z,45.00
2018-11-06T01:32:53.038Z,45.00
2018-11-06T01:35:19.263Z,44.90
2018-11-06T01:37:45.498Z,45.00
2018-11-06T01:40:11.727Z,44.90
2018-11-06T01:42:37.951Z,45.00
2018-11-06T01:45:04.183Z,44.90
2018-11-06T01:47:30.411Z,44.90
2018-11-06T01:49:56.642Z,44.90
2018-11-06T01:52:22.870Z,44.90
2018-11-06T01:54:49.087Z,44.90
2018-11-06T01:57:15.318Z,44.90
2018-11-06T01:59:41.563Z,44.90
2018-11-06T02:02:07.795Z,44.90
2018-11-06T02:04:34.007Z,44.90
2018-11-06T02:07:00.232Z,44.90
2018-11-06T02:09:26.460Z,44.90
2018-11-06T02:11:52.682Z,45.00
2018-11-06T02:14:18.911Z,45.00
2018-11-06T02:16:45.141Z,44.90
2018-11-06T02:19:11.375Z,44.90
2018-11-06T02:21:37.600Z,45.00
2018-11-06T02:24:03.823Z,45.00
2018-11-06T02:26:30.051Z,45.00
2018-11-06T02:28:56.283Z,45.00
2018-11-06T02:31:22.508Z,45.00
2018-11-06T02:33:48.734Z,45.00
2018-11-06T02:36:14.967Z,45.00
2018-11-06T02:38:41.199Z,45.00
2018-11-06T02:41:07.426Z,45.00
2018-11-06T02:43:33.646Z,45.10
2018-11-06T02:45:59.876Z,45.10
2018-11-06T02:48:26.115Z,45.00
2018-11-06T02:50:56.023Z,45.00
2018-11-06T02:53:22.240Z,45.00
2018-11-06T02:58:20.857Z,45.10
2018-11-06T03:00:47.080Z,45.10
2018-11-06T03:03:13.303Z,45.20
2018-11-06T03:05:39.526Z,45.10
2018-11-06T03:08:05.750Z,45.10
2018-11-06T03:10:32.033Z,45.10
2018-11-06T03:12:59.445Z,45.10
2018-11-06T03:15:25.660Z,45.50
2018-11-06T03:17:51.890Z,45.20
2018-11-06T03:20:18.123Z,45.20
2018-11-06T03:22:44.352Z,45.10
2018-11-06T03:25:10.580Z,45.10
2018-11-06T03:27:36.807Z,45.20
2018-11-06T03:30:03.043Z,45.20
2018-11-06T03:32:32.145Z,45.20
2018-11-06T03:34:58.761Z,45.30
2018-11-06T03:37:25.001Z,45.20
2018-11-06T03:39:51.221Z,45.20
2018-11-06T03:42:17.441Z,45.30
2018-11-06T03:44:43.682Z,45.20
2018-11-06T03:47:09.912Z,45.30
2018-11-06T03:49:36.123Z,45.30
2018-11-06T03:52:02.367Z,45.30
2018-11-06T03:54:28.605Z,45.30
2018-11-06T03:56:54.823Z,45.30
2018-11-06T03:59:21.035Z,45.30
2018-11-06T04:01:47.269Z,45.30
2018-11-06T04:04:13.494Z,45.30
2018-11-06T04:06:39.718Z,45.40
2018-11-06T04:09:05.952Z,45.30
2018-11-06T04:11:32.178Z,45.30
2018-11-06T04:13:58.403Z,45.30
2018-11-06T04:16:24.630Z,45.30
2018-11-06T04:18:50.863Z,45.30
2018-11-06T04:21:17.094Z,45.40
2018-11-06T04:23:43.308Z,45.30
2018-11-06T04:26:09.543Z,45.30
2018-11-06T04:28:35.776Z,45.30
2018-11-06T04:31:02.000Z,45.30
2018-11-06T04:33:28.239Z,45.30
2018-11-06T04:35:54.451Z,46.00
2018-11-06T04:38:20.679Z,45.30
2018-11-06T04:40:46.908Z,45.40
2018-11-06T04:43:20.094Z,45.30
2018-11-06T04:45:46.322Z,45.30
2018-11-06T04:48:12.550Z,45.20
2018-11-06T04:50:38.793Z,45.30
2018-11-06T04:53:05.011Z,45.30
2018-11-06T04:55:31.239Z,45.30
2018-11-06T04:57:57.460Z,46.00
2018-11-06T05:00:23.696Z,45.30
2018-11-06T05:02:49.923Z,45.30
2018-11-06T05:05:16.147Z,45.30
2018-11-06T05:07:42.378Z,45.30
2018-11-06T05:10:08.611Z,45.30
2018-11-06T05:12:34.832Z,45.30
2018-11-06T05:15:01.056Z,45.30
2018-11-06T05:17:27.294Z,45.40
2018-11-06T05:19:53.505Z,45.30
2018-11-06T05:22:19.732Z,45.30
2018-11-06T05:24:46.459Z,45.20
2018-11-06T05:27:13.032Z,45.30
2018-11-06T05:29:40.466Z,45.30
2018-11-06T05:32:06.699Z,45.30
2018-11-06T05:34:32.929Z,45.30
2018-11-06T05:36:59.150Z,45.30
2018-11-06T05:39:25.397Z,45.30
2018-11-06T05:41:52.832Z,45.30
2018-11-06T05:44:19.065Z,45.30
2018-11-06T05:46:45.286Z,45.30
2018-11-06T05:49:11.512Z,45.30
2018-11-06T05:51:37.747Z,45.30
2018-11-06T05:54:03.979Z,45.30
2018-11-06T05:56:30.212Z,45.30
2018-11-06T05:58:56.433Z,45.30
2018-11-06T06:01:22.652Z,45.30
2018-11-06T06:03:48.890Z,45.30
2018-11-06T06:06:15.105Z,45.30
2018-11-06T06:08:41.337Z,45.30
2018-11-06T06:11:07.628Z,45.30
2018-11-06T06:13:34.679Z,45.30
2018-11-06T06:16:01.244Z,45.30
2018-11-06T06:18:27.475Z,45.30
2018-11-06T06:20:53.704Z,45.40
2018-11-06T06:23:19.928Z,45.40
2018-11-06T06:25:46.159Z,45.40
2018-11-06T06:28:12.417Z,45.30
2018-11-06T06:30:39.843Z,45.40
2018-11-06T06:33:06.071Z,45.40
2018-11-06T06:35:32.303Z,46.10
2018-11-06T06:37:58.526Z,45.40
2018-11-06T06:40:24.748Z,45.30
2018-11-06T06:42:50.985Z,45.40
2018-11-06T06:45:17.215Z,45.30
2018-11-06T06:47:43.434Z,45.30
2018-11-06T06:50:09.659Z,45.30
2018-11-06T06:52:35.895Z,45.30
2018-11-06T06:55:02.283Z,45.40
2018-11-06T06:57:29.368Z,45.40
2018-11-06T06:59:55.599Z,45.40
2018-11-06T07:02:22.087Z,45.40
2018-11-06T07:04:49.483Z,45.30
2018-11-06T07:07:15.731Z,45.40
2018-11-06T07:09:41.939Z,45.30
2018-11-06T07:12:08.187Z,45.30
2018-11-06T07:14:34.401Z,45.30
2018-11-06T07:17:00.626Z,45.30
2018-11-06T07:19:26.859Z,45.30
2018-11-06T07:21:53.080Z,45.40
2018-11-06T07:24:19.309Z,45.30
2018-11-06T07:26:46.768Z,45.40
2018-11-06T07:29:12.994Z,45.40
2018-11-06T07:31:39.222Z,45.30
2018-11-06T07:34:05.443Z,45.40
2018-11-06T07:36:31.681Z,45.40
2018-11-06T07:38:57.907Z,45.30
2018-11-06T07:41:24.130Z,45.30
2018-11-06T07:43:50.364Z,45.30
2018-11-06T07:46:16.599Z,45.40
2018-11-06T07:48:42.820Z,45.30
2018-11-06T07:51:09.035Z,45.30
2018-11-06T07:53:35.278Z,45.30
2018-11-06T07:56:02.726Z,45.30
2018-11-06T07:58:28.952Z,45.30
2018-11-06T08:00:55.175Z,45.30
2018-11-06T08:03:21.403Z,45.30
2018-11-06T08:05:47.636Z,45.30
2018-11-06T08:08:13.858Z,45.30
2018-11-06T08:10:40.091Z,45.40
2018-11-06T08:13:06.322Z,45.40
2018-11-06T08:15:32.544Z,45.30
2018-11-06T08:17:58.850Z,46.00
2018-11-06T08:20:26.276Z,45.30
2018-11-06T08:22:53.484Z,45.30
2018-11-06T08:25:19.912Z,45.30
2018-11-06T08:27:46.224Z,45.30
2018-11-06T08:30:12.790Z,45.30
2018-11-06T08:32:40.577Z,45.30
2018-11-06T08:35:07.694Z,45.40
2018-11-06T08:37:33.922Z,45.40
2018-11-06T08:40:00.155Z,45.30
2018-11-06T08:42:26.419Z,46.10
2018-11-06T08:44:53.017Z,45.30
2018-11-06T08:47:20.065Z,45.30
2018-11-06T08:49:46.293Z,45.30
2018-11-06T08:52:12.518Z,45.30
2018-11-06T08:54:38.883Z,45.30
2018-11-06T08:57:06.213Z,45.40
2018-11-06T08:59:32.432Z,45.30
2018-11-06T09:01:58.656Z,45.30
2018-11-06T09:04:24.888Z,45.40
2018-11-06T09:06:51.111Z,45.50
2018-11-06T09:09:17.357Z,45.40
2018-11-06T09:11:43.582Z,45.50
2018-11-06T09:14:09.800Z,45.40
2018-11-06T09:16:36.035Z,45.40
2018-11-06T09:19:02.271Z,45.40
2018-11-06T09:21:28.496Z,45.50
2018-11-06T09:23:54.722Z,45.50
2018-11-06T09:26:20.955Z,45.60
2018-11-06T09:28:47.209Z,45.60
2018-11-06T09:31:13.414Z,45.70
2018-11-06T09:33:39.647Z,45.60
2018-11-06T09:36:05.878Z,45.70
2018-11-06T09:38:32.111Z,45.70
2018-11-06T09:40:58.338Z,45.70
2018-11-06T09:43:24.564Z,45.80
2018-11-06T09:45:50.794Z,45.80
2018-11-06T09:48:17.023Z,45.70
2018-11-06T09:50:44.488Z,45.80
2018-11-06T09:53:10.719Z,45.80
2018-11-06T09:55:36.943Z,45.90
2018-11-06T09:58:03.174Z,45.80
2018-11-06T10:00:29.404Z,45.80
2018-11-06T10:02:55.630Z,45.90
2018-11-06T10:05:21.870Z,45.90
2018-11-06T10:07:48.183Z,45.90
2018-11-06T10:10:14.527Z,45.90
2018-11-06T10:12:40.959Z,45.90
2018-11-06T10:15:07.198Z,45.90
2018-11-06T10:17:33.416Z,45.90
2018-11-06T10:19:59.657Z,45.90
2018-11-06T10:22:26.704Z,46.00
2018-11-06T10:24:52.929Z,45.90
2018-11-06T10:27:19.164Z,46.00
2018-11-06T10:29:50.313Z,46.10
2018-11-06T10:32:16.534Z,46.10
2018-11-06T10:34:42.766Z,46.10
2018-11-06T10:37:08.994Z,46.10
2018-11-06T10:39:35.229Z,46.20
2018-11-06T10:42:01.453Z,46.20
2018-11-06T10:44:27.684Z,46.30
2018-11-06T10:46:53.913Z,46.30
2018-11-06T10:49:20.135Z,46.30
2018-11-06T10:51:46.425Z,46.30
2018-11-06T10:54:13.818Z,46.40
2018-11-06T10:56:40.059Z,46.50
2018-11-06T10:59:06.280Z,46.30
2018-11-06T11:01:32.511Z,46.30
2018-11-06T11:03:58.775Z,47.10
2018-11-06T11:06:26.198Z,46.50
2018-11-06T11:08:52.422Z,46.50
2018-11-06T11:11:19.879Z,46.60
2018-11-06T11:13:46.107Z,46.50
2018-11-06T11:16:12.345Z,46.60
2018-11-06T11:18:38.572Z,46.50
2018-11-06T11:21:04.798Z,46.60
2018-11-06T11:23:31.018Z,46.60
2018-11-06T11:25:58.481Z,46.70
2018-11-06T11:28:24.709Z,46.60
2018-11-06T11:30:50.929Z,46.70
2018-11-06T11:33:17.162Z,46.70
2018-11-06T11:35:43.388Z,46.90
2018-11-06T11:38:09.619Z,46.70
2018-11-06T11:40:35.844Z,46.70
2018-11-06T11:43:02.075Z,46.80
2018-11-06T11:45:28.295Z,46.80
2018-11-06T11:47:54.546Z,46.80
2018-11-06T11:50:20.762Z,46.80
2018-11-06T11:52:47.016Z,46.90
2018-11-06T11:55:13.219Z,47.00
2018-11-06T11:57:39.437Z,47.00
2018-11-06T12:00:05.749Z,47.00
2018-11-06T12:02:33.127Z,47.00
2018-11-06T12:04:59.363Z,47.00
2018-11-06T12:07:25.589Z,47.10
2018-11-06T12:09:51.808Z,47.00
2018-11-06T12:12:18.038Z,47.00
2018-11-06T12:14:44.278Z,47.10
2018-11-06T12:17:10.503Z,47.00
2018-11-06T12:19:36.732Z,47.00
2018-11-06T12:22:02.959Z,47.10
2018-11-06T12:24:29.243Z,47.10
2018-11-06T12:26:56.454Z,47.10
2018-11-06T12:29:22.870Z,47.10
2018-11-06T12:31:49.092Z,47.20
2018-11-06T12:34:15.323Z,47.20
2018-11-06T12:36:41.615Z,47.10
2018-11-06T12:39:09.010Z,47.20
2018-11-06T12:41:35.236Z,47.20
2018-11-06T12:44:01.461Z,47.20
2018-11-06T12:46:27.686Z,47.30
2018-11-06T12:48:53.923Z,47.20
2018-11-06T12:51:20.154Z,47.20
2018-11-06T12:53:46.379Z,47.30
2018-11-06T12:56:12.613Z,47.30
2018-11-06T12:58:40.072Z,47.40
2018-11-06T13:01:07.110Z,47.40
2018-11-06T13:03:33.429Z,47.30
2018-11-06T13:06:00.801Z,47.40
2018-11-06T13:08:27.023Z,47.40
2018-11-06T13:10:53.245Z,47.50
2018-11-06T13:13:19.478Z,47.40
2018-11-06T13:15:45.789Z,47.50
2018-11-06T13:18:13.169Z,47.50
2018-11-06T13:20:39.394Z,48.20
2018-11-06T13:23:05.620Z,47.60
2018-11-06T13:25:31.917Z,47.60
2018-11-06T13:27:59.304Z,47.70
2018-11-06T13:30:25.532Z,47.80
2018-11-06T13:32:51.762Z,47.70
2018-11-06T13:35:17.990Z,47.70
2018-11-06T13:37:44.224Z,47.70
2018-11-06T13:40:10.457Z,47.70
2018-11-06T13:42:36.786Z,47.60
2018-11-06T13:45:03.484Z,47.60
2018-11-06T13:47:32.411Z,47.60
2018-11-06T13:49:58.640Z,47.60
2018-11-06T13:52:24.864Z,47.70
2018-11-06T13:54:51.101Z,47.70
2018-11-06T13:57:17.328Z,47.80
2018-11-06T13:59:43.565Z,47.80
2018-11-06T14:02:09.775Z,47.80
2018-11-06T14:04:36.008Z,47.80
2018-11-06T14:07:02.397Z,47.80
2018-11-06T14:09:28.871Z,47.80
2018-11-06T14:11:55.098Z,47.90
2018-11-06T14:14:21.328Z,48.60
2018-11-06T14:16:47.556Z,47.90
2018-11-06T14:19:13.778Z,48.00
2018-11-06T14:21:40.035Z,48.00
2018-11-06T14:24:06.230Z,47.90
2018-11-06T14:26:32.458Z,48.00
2018-11-06T14:28:58.686Z,48.00
2018-11-06T14:31:24.912Z,48.00
2018-11-06T14:33:51.139Z,48.10
2018-11-06T14:36:17.371Z,48.20
2018-11-06T14:38:43.594Z,48.10
2018-11-06T14:41:09.826Z,48.10
2018-11-06T14:43:36.050Z,48.10
2018-11-06T14:46:02.290Z,48.10
2018-11-06T14:48:29.835Z,48.30
2018-11-06T14:50:57.846Z,48.30
2018-11-06T14:53:24.239Z,48.30
2018-11-06T14:55:50.476Z,48.30
2018-11-06T14:58:17.935Z,48.30
2018-11-06T15:00:45.388Z,48.40
2018-11-06T15:03:11.619Z,48.40
2018-11-06T15:05:37.874Z,48.30
2018-11-06T15:08:04.476Z,48.40
2018-11-06T15:10:30.707Z,48.50
2018-11-06T15:12:56.931Z,48.40
2018-11-06T15:15:23.163Z,48.40
2018-11-06T15:17:49.392Z,48.30
2018-11-06T15:20:15.619Z,48.40
2018-11-06T15:22:41.855Z,48.40
2018-11-06T15:25:08.079Z,48.40
2018-11-06T15:27:34.310Z,48.40
2018-11-06T15:30:00.540Z,48.40
2018-11-06T15:32:26.854Z,48.60
2018-11-06T15:34:54.036Z,48.60
2018-11-06T15:37:20.459Z,48.60
2018-11-06T15:39:46.728Z,48.60
2018-11-06T15:42:14.144Z,48.60
2018-11-06T15:44:40.368Z,48.70
2018-11-06T15:47:06.598Z,48.60
2018-11-06T15:49:32.839Z,48.70
2018-11-06T15:51:59.063Z,48.70
2018-11-06T15:54:25.296Z,48.80
2018-11-06T15:56:52.747Z,48.80
2018-11-06T15:59:18.979Z,48.70
2018-11-06T16:01:45.262Z,48.80
2018-11-06T16:04:12.471Z,48.70
2018-11-06T16:06:38.695Z,48.70
2018-11-06T16:09:05.952Z,48.80
2018-11-06T16:11:32.179Z,48.80
2018-11-06T16:13:58.414Z,48.80
2018-11-06T16:16:24.639Z,48.80
2018-11-06T16:18:50.874Z,48.80
2018-11-06T16:21:17.107Z,48.80
2018-11-06T16:23:43.340Z,48.80
2018-11-06T16:26:09.562Z,48.80
2018-11-06T16:28:35.790Z,48.80
2018-11-06T16:31:02.024Z,48.70
2018-11-06T16:33:28.248Z,48.80
2018-11-06T16:35:54.483Z,49.50
2018-11-06T16:38:20.712Z,48.80
2018-11-06T16:40:46.937Z,48.80
2018-11-06T16:43:13.166Z,48.90
2018-11-06T16:45:39.400Z,48.90
2018-11-06T16:48:05.641Z,48.90
2018-11-06T16:50:32.876Z,49.00
2018-11-06T16:52:59.308Z,48.90
2018-11-06T16:55:25.541Z,48.90
2018-11-06T16:57:51.776Z,48.90
2018-11-06T17:00:18.138Z,49.10
2018-11-06T17:02:44.631Z,49.00
2018-11-06T17:05:10.883Z,49.10
2018-11-06T17:07:37.110Z,49.80
2018-11-06T17:10:03.346Z,49.10
2018-11-06T17:12:31.227Z,49.10
2018-11-06T17:14:58.698Z,49.10
2018-11-06T17:17:24.978Z,49.00
2018-11-06T17:19:52.151Z,49.10
2018-11-06T17:22:18.585Z,49.00
2018-11-06T17:24:44.815Z,49.10
2018-11-06T17:27:11.043Z,49.10
2018-11-06T17:29:37.269Z,49.10
2018-11-06T17:32:03.511Z,49.20
2018-11-06T17:34:29.730Z,49.20
2018-11-06T17:36:55.964Z,49.30
2018-11-06T17:39:22.224Z,49.20
2018-11-06T17:41:49.647Z,49.30
2018-11-06T17:44:15.886Z,49.20
2018-11-06T17:46:42.108Z,49.10
2018-11-06T17:49:08.345Z,49.20
2018-11-06T17:51:34.566Z,49.30
2018-11-06T17:54:00.794Z,49.30
2018-11-06T17:56:27.023Z,49.30
2018-11-06T17:58:53.258Z,49.30
2018-11-06T18:01:19.484Z,49.30
2018-11-06T18:03:45.718Z,49.20
2018-11-06T18:06:11.947Z,49.20
2018-11-06T18:08:38.174Z,49.20
2018-11-06T18:11:04.403Z,49.10
2018-11-06T18:13:30.631Z,49.20
2018-11-06T18:15:56.865Z,49.20
2018-11-06T18:18:23.099Z,49.20
2018-11-06T18:20:49.343Z,49.10
2018-11-06T18:23:15.564Z,49.10
2018-11-06T18:25:41.974Z,49.20
2018-11-06T18:28:09.245Z,49.20
2018-11-06T18:30:35.474Z,49.10
2018-11-06T18:33:01.705Z,49.10
2018-11-06T18:35:27.927Z,49.10
2018-11-06T18:37:54.154Z,49.10
2018-11-06T18:40:20.401Z,49.10
2018-11-06T18:42:46.619Z,49.00
2018-11-06T18:45:12.851Z,49.00
2018-11-06T18:47:39.950Z,48.90
2018-11-06T18:50:07.369Z,49.00
2018-11-06T18:52:33.589Z,49.00
2018-11-06T18:54:59.821Z,49.00
2018-11-06T18:57:26.054Z,49.00
2018-11-06T18:59:52.279Z,49.00
2018-11-06T19:02:18.507Z,48.90
2018-11-06T19:04:44.731Z,48.80
2018-11-06T19:07:10.972Z,48.90
2018-11-06T19:09:37.199Z,48.80
2018-11-06T19:12:03.427Z,48.90
2018-11-06T19:14:29.659Z,48.80
2018-11-06T19:16:55.928Z,48.70
2018-11-06T19:19:23.350Z,48.70
2018-11-06T19:21:49.574Z,48.70
2018-11-06T19:24:15.803Z,48.60
2018-11-06T19:26:42.037Z,48.60
2018-11-06T19:29:08.268Z,48.60
2018-11-06T19:31:34.500Z,48.60
2018-11-06T19:34:00.728Z,48.50
2018-11-06T19:36:26.992Z,48.50
2018-11-06T19:38:54.417Z,48.50
2018-11-06T19:41:20.652Z,48.50
2018-11-06T19:43:46.875Z,48.50
2018-11-06T19:46:13.108Z,48.40
2018-11-06T19:48:39.344Z,48.50
2018-11-06T19:51:06.451Z,48.40
2018-11-06T19:53:32.736Z,48.40
2018-11-06T19:55:59.871Z,48.40
2018-11-06T19:58:26.094Z,48.40
2018-11-06T20:00:52.541Z,48.40
2018-11-06T20:03:20.087Z,48.30
2018-11-06T20:05:46.317Z,48.30
2018-11-06T20:08:12.856Z,48.30
2018-11-06T20:10:39.094Z,48.40
2018-11-06T20:13:05.318Z,48.50
2018-11-06T20:15:31.575Z,48.40
2018-11-06T20:17:59.142Z,48.30
2018-11-06T20:20:26.460Z,48.40
2018-11-06T20:22:52.694Z,48.40
2018-11-06T20:25:18.923Z,48.40
2018-11-06T20:27:45.155Z,48.30
2018-11-06T20:30:11.383Z,48.30
2018-11-06T20:32:37.619Z,48.90
2018-11-06T20:35:03.840Z,48.20
2018-11-06T20:37:30.103Z,48.30
2018-11-06T20:39:57.532Z,48.30
2018-11-06T20:42:23.761Z,48.20
2018-11-06T20:44:49.992Z,48.30
2018-11-06T20:47:16.215Z,48.20
2018-11-06T20:49:42.558Z,48.10
2018-11-06T20:52:09.700Z,48.20
2018-11-06T20:54:36.964Z,48.10
2018-11-06T20:57:03.183Z,48.10
2018-11-06T20:59:29.424Z,48.20
2018-11-06T21:01:55.652Z,48.10
2018-11-06T21:04:21.875Z,48.10
2018-11-06T21:06:48.164Z,48.10
2018-11-06T21:09:15.573Z,48.00
2018-11-06T21:11:41.809Z,48.10
2018-11-06T21:14:09.309Z,48.00
2018-11-06T21:16:36.507Z,48.00
2018-11-06T21:19:03.428Z,48.10
2018-11-06T21:21:29.988Z,48.10
2018-11-06T21:23:56.226Z,48.10
2018-11-06T21:26:22.565Z,48.00
2018-11-06T21:28:49.908Z,48.00
2018-11-06T21:31:16.194Z,48.70
2018-11-06T21:33:43.640Z,48.00
2018-11-06T21:36:10.712Z,48.10
2018-11-06T21:38:36.884Z,48.00
2018-11-06T21:41:03.107Z,48.10
2018-11-06T21:43:29.335Z,48.10
2018-11-06T21:45:55.579Z,48.00
2018-11-06T21:48:21.795Z,47.90
2018-11-06T21:50:48.033Z,47.90
2018-11-06T21:53:14.256Z,48.00
2018-11-06T21:55:40.486Z,48.00
2018-11-06T21:58:06.720Z,48.00
2018-11-06T22:00:32.960Z,47.80
2018-11-06T22:02:59.179Z,48.00
2018-11-06T22:05:25.408Z,48.00
2018-11-06T22:07:51.635Z,47.90
2018-11-06T22:10:17.874Z,47.90
2018-11-06T22:12:44.186Z,47.80
2018-11-06T22:15:11.355Z,47.90
2018-11-06T22:17:37.797Z,47.90
2018-11-06T22:20:04.010Z,47.90
2018-11-06T22:22:30.248Z,47.90
2018-11-06T22:24:56.470Z,47.90
2018-11-06T22:27:22.756Z,47.80
2018-11-06T22:29:50.161Z,48.00
2018-11-06T22:32:16.435Z,47.90
2018-11-06T22:34:43.856Z,48.00
2018-11-06T22:37:10.175Z,48.10
2018-11-06T22:39:37.190Z,48.00
2018-11-06T22:42:04.442Z,48.00
2018-11-06T22:44:30.815Z,47.90
2018-11-06T22:46:58.287Z,47.90
2018-11-06T22:49:24.505Z,47.90
2018-11-06T22:51:50.740Z,47.80
2018-11-06T22:54:16.966Z,47.90
2018-11-06T22:56:43.203Z,47.80
2018-11-06T22:59:09.433Z,47.90
2018-11-06T23:01:35.659Z,47.90
2018-11-06T23:04:01.898Z,47.90
2018-11-06T23:06:28.174Z,47.90
2018-11-06T23:08:55.576Z,48.00
2018-11-06T23:11:21.812Z,47.80
2018-11-06T23:13:48.040Z,47.80
2018-11-06T23:16:14.267Z,47.80
2018-11-06T23:18:40.494Z,47.80
2018-11-06T23:21:06.723Z,47.80
2018-11-06T23:23:32.953Z,47.80
2018-11-06T23:25:59.187Z,47.80
2018-11-06T23:28:25.420Z,47.70
2018-11-06T23:30:51.652Z,47.90
2018-11-06T23:33:17.879Z,47.80
2018-11-06T23:35:44.128Z,47.80
2018-11-06T23:38:11.208Z,47.90
2018-11-06T23:40:37.391Z,47.90
2018-11-06T23:43:03.609Z,47.90
2018-11-06T23:45:29.844Z,47.90
2018-11-06T23:47:56.075Z,47.80
2018-11-06T23:50:22.305Z,47.80
2018-11-06T23:52:48.543Z,47.70
2018-11-06T23:55:14.813Z,47.70
2018-11-06T23:57:42.217Z,47.70
